Time;durP1;ratioP1;P1;durP2;ratioP2;P2;SDS_P1;SDS_P2;PMS_P1;PMS_P2;Temp;Humidity;BMP_temperature;BMP_pressure;BME280_temperature;BME280_humidity;BME280_pressure;Samples;Min_cycle;Max_cycle;Signal;HPM_P1;HPM_P2
2021/07/12 03:30:15;;;;;;;3.90;3.10;;;;;;;18.97;59.63;98487.50;8440274;23;21237;-83
2021/07/12 03:33:37;;;;;;;3.20;2.70;;;;;;;18.76;59.04;98494.78;6882612;28;20282;-83
2021/07/12 03:36:59;;;;;;;3.50;3.20;;;;;;;18.43;59.65;98489.66;6900270;28;20208;-83
2021/07/12 03:40:21;;;;;;;3.37;2.97;;;;;;;17.96;61.70;98488.72;6899063;28;20215;-83
2021/07/12 03:43:43;;;;;;;8.40;3.37;;;;;;;17.96;62.44;98485.16;6899296;28;20207;-84
2021/07/12 03:47:06;;;;;;;5.80;3.10;;;;;;;18.09;62.39;98473.81;6900314;28;20213;-84
2021/07/12 03:50:28;;;;;;;6.90;3.17;;;;;;;18.35;60.99;98475.69;6898267;28;20227;-83
2021/07/12 03:53:50;;;;;;;2.90;2.70;;;;;;;18.66;60.29;98474.78;6899054;28;20235;-83
2021/07/12 03:57:11;;;;;;;5.77;2.90;;;;;;;18.16;60.94;98475.22;6898488;28;20212;-83
2021/07/12 04:00:33;;;;;;;3.37;2.80;;;;;;;18.34;60.72;98450.28;6898520;28;20222;-83
2021/07/12 04:03:56;;;;;;;3.50;3.20;;;;;;;18.33;61.00;98467.75;6885691;28;20211;-83
2021/07/12 04:07:18;;;;;;;6.50;3.00;;;;;;;18.20;61.32;98448.25;6869548;28;20234;-83
2021/07/12 04:10:40;;;;;;;5.07;3.03;;;;;;;18.45;61.03;98453.94;6870085;28;20603;-82
2021/07/12 04:14:01;;;;;;;8.60;3.20;;;;;;;18.52;61.05;98477.16;6870671;28;20240;-83
2021/07/12 04:17:23;;;;;;;3.20;2.90;;;;;;;18.60;60.61;98473.09;6870938;28;20209;-83
2021/07/12 04:20:47;;;;;;;5.07;3.13;;;;;;;18.39;60.74;98476.81;6871305;28;20224;-83
2021/07/12 04:24:09;;;;;;;3.00;2.80;;;;;;;18.43;61.07;98475.19;6871975;28;20212;-83
2021/07/12 04:27:31;;;;;;;3.40;3.10;;;;;;;18.49;61.36;98466.78;6870627;28;20657;-84
2021/07/12 04:30:52;;;;;;;4.20;2.87;;;;;;;18.42;60.34;98421.69;6868566;28;20237;-84
2021/07/12 04:34:14;;;;;;;2.90;2.70;;;;;;;18.70;60.40;98448.59;6850213;28;20226;-83
2021/07/12 04:37:37;;;;;;;2.87;2.57;;;;;;;18.81;59.77;98444.84;6879314;28;20236;-84
2021/07/12 04:40:58;;;;;;;3.97;2.50;;;;;;;18.38;60.39;98415.09;6880311;28;20731;-82
2021/07/12 04:44:20;;;;;;;3.63;3.03;;;;;;;18.41;60.97;98428.22;6881011;28;20635;-83
2021/07/12 04:47:42;;;;;;;3.83;3.00;;;;;;;18.32;61.67;98435.25;6868245;28;20215;-83
2021/07/12 04:51:04;;;;;;;3.10;2.80;;;;;;;18.58;61.67;98435.13;6868201;28;20240;-82
2021/07/12 04:54:27;;;;;;;3.10;2.80;;;;;;;18.60;61.83;98427.53;6866664;28;20232;-83
2021/07/12 04:57:48;;;;;;;3.40;3.10;;;;;;;19.33;60.35;98435.47;6869391;28;20212;-83
2021/07/12 05:01:10;;;;;;;3.70;2.70;;;;;;;19.56;60.44;98440.44;6868098;28;20240;-83
2021/07/12 05:04:32;;;;;;;3.27;2.90;;;;;;;20.07;59.02;98419.41;6869491;28;20223;-83
2021/07/12 05:07:53;;;;;;;5.63;3.30;;;;;;;20.48;58.43;98435.53;6870248;28;20216;-83
2021/07/12 05:11:16;;;;;;;4.37;2.77;;;;;;;20.89;56.85;98434.34;6866598;28;20754;-83
2021/07/12 05:14:38;;;;;;;3.73;2.80;;;;;;;20.44;57.94;98442.66;6894451;28;20214;-83
2021/07/12 05:18:00;;;;;;;4.23;3.00;;;;;;;21.19;57.39;98440.50;6856082;28;20206;-84
2021/07/12 05:21:21;;;;;;;6.57;2.97;;;;;;;21.99;56.38;98441.91;6844853;28;20234;-83
2021/07/12 05:24:43;;;;;;;3.00;2.70;;;;;;;22.69;53.92;98435.78;6865513;28;20218;-83
2021/07/12 05:28:06;;;;;;;4.07;2.90;;;;;;;22.60;53.43;98432.03;6872461;28;20900;-83
2021/07/12 05:31:28;;;;;;;2.70;2.50;;;;;;;22.21;54.76;98417.56;6872750;28;20231;-84
2021/07/12 05:34:50;;;;;;;2.70;2.50;;;;;;;22.30;55.79;98418.59;6861887;28;20294;-84
2021/07/12 05:38:11;;;;;;;2.30;2.20;;;;;;;23.64;51.78;98418.88;6871738;28;20585;-83
2021/07/12 05:41:33;;;;;;;3.70;2.40;;;;;;;24.08;49.98;98411.00;6871628;28;20601;-83
2021/07/12 05:44:56;;;;;;;3.67;2.40;;;;;;;24.35;48.68;98400.06;6872357;28;20208;-83
2021/07/12 05:48:17;;;;;;;2.87;2.33;;;;;;;23.99;50.22;98412.84;6871726;28;20205;-83
2021/07/12 05:51:39;;;;;;;2.60;2.40;;;;;;;24.13;50.99;98413.69;6871518;28;20255;-84
2021/07/12 05:55:01;;;;;;;2.83;2.20;;;;;;;25.05;48.92;98403.41;6871853;28;20221;-83
2021/07/12 05:58:22;;;;;;;2.50;2.30;;;;;;;24.30;49.13;98375.38;6871505;28;20215;-84
2021/07/12 06:01:45;;;;;;;2.20;2.10;;;;;;;24.50;50.66;98386.03;6872090;28;20231;-83
2021/07/12 06:05:08;;;;;;;2.43;2.17;;;;;;;24.85;48.54;98387.28;6864010;28;20213;-83
2021/07/12 06:08:29;;;;;;;3.30;2.17;;;;;;;25.49;46.85;98302.22;6860404;28;20202;-83
2021/07/12 06:11:51;;;;;;;2.63;2.43;;;;;;;25.38;47.36;98311.91;6873464;28;20227;-86
2021/07/12 06:15:13;;;;;;;2.77;1.93;;;;;;;26.30;46.24;98404.06;6868988;28;20230;-83
2021/07/12 06:18:36;;;;;;;2.20;2.10;;;;;;;26.83;44.48;98395.75;6863614;28;20206;-84
2021/07/12 06:21:57;;;;;;;2.67;2.30;;;;;;;25.88;44.83;98315.31;6875007;28;20228;-84
2021/07/12 06:25:20;;;;;;;2.90;1.90;;;;;;;26.99;44.14;98386.69;6875486;28;20209;-84
2021/07/12 06:28:42;;;;;;;2.63;1.93;;;;;;;27.59;42.28;98395.94;6874359;28;20289;-84
2021/07/12 06:32:05;;;;;;;2.03;1.93;;;;;;;27.21;42.49;98396.88;6873300;28;20255;-85
2021/07/12 06:35:28;;;;;;;2.17;1.97;;;;;;;27.35;42.79;98373.44;6855006;28;20234;-84
2021/07/12 06:38:49;;;;;;;2.00;1.90;;;;;;;26.56;44.27;98371.88;6847871;28;20208;-84
2021/07/12 06:42:11;;;;;;;2.00;1.90;;;;;;;26.29;45.80;98368.44;6861001;28;20236;-84
2021/07/12 06:45:32;;;;;;;2.63;1.97;;;;;;;25.89;46.42;98348.16;6875983;28;20212;-85
2021/07/12 06:48:55;;;;;;;2.37;2.17;;;;;;;25.72;47.37;98352.78;6874588;28;20208;-84
2021/07/12 06:52:18;;;;;;;2.67;2.20;;;;;;;24.68;48.98;98321.72;6874665;28;20221;-84
2021/07/12 06:55:40;;;;;;;4.63;2.17;;;;;;;24.76;49.81;98347.75;6874444;28;20229;-83
2021/07/12 06:59:01;;;;;;;3.03;2.23;;;;;;;24.15;50.60;98350.03;6874738;28;20217;-83
2021/07/12 07:02:23;;;;;;;2.33;2.10;;;;;;;24.93;49.65;98329.47;6875025;28;20230;-84
2021/07/12 07:05:45;;;;;;;3.70;2.40;;;;;;;25.54;48.09;98343.53;6874534;28;20218;-83
2021/07/12 07:09:08;;;;;;;4.07;2.37;;;;;;;25.95;47.48;98338.66;6873465;28;20675;-84
2021/07/12 07:12:29;;;;;;;2.93;2.03;;;;;;;25.36;48.52;98340.94;6875281;28;20229;-84
2021/07/12 07:15:51;;;;;;;2.87;2.23;;;;;;;24.89;50.07;98347.75;6874160;28;20224;-83
2021/07/12 07:19:13;;;;;;;3.13;2.47;;;;;;;25.62;48.40;98334.50;6853151;28;20223;-83
2021/07/12 07:22:35;;;;;;;3.57;2.00;;;;;;;25.24;49.09;98340.69;6849176;28;20229;-83
2021/07/12 07:25:58;;;;;;;3.33;2.17;;;;;;;25.20;48.96;98332.13;6849732;29;20215;-83
2021/07/12 07:29:21;;;;;;;2.57;2.30;;;;;;;24.27;51.52;98306.28;6852973;28;20210;-83
2021/07/12 07:32:43;;;;;;;4.03;2.37;;;;;;;24.67;49.88;98295.25;6872928;28;20243;-84
2021/07/12 07:36:05;;;;;;;3.00;2.40;;;;;;;24.11;50.83;98192.81;6874257;28;20597;-84
2021/07/12 07:39:26;;;;;;;2.97;2.00;;;;;;;25.29;49.26;98269.59;6873643;28;20202;-83
2021/07/12 07:42:50;;;;;;;2.07;1.87;;;;;;;26.32;47.15;98285.69;6868443;28;20251;-86
2021/07/12 07:46:11;;;;;;;1.93;1.83;;;;;;;26.64;45.06;98201.56;6876817;28;20213;-84
2021/07/12 07:49:33;;;;;;;2.53;2.33;;;;;;;26.70;44.68;98261.94;6871529;28;20217;-84
2021/07/12 07:52:55;;;;;;;4.10;2.40;;;;;;;26.26;46.78;98253.78;6876245;28;20216;-85
2021/07/12 07:56:17;;;;;;;2.73;1.93;;;;;;;26.71;45.04;98260.00;6876344;28;20236;-84
2021/07/12 07:59:40;;;;;;;1.93;1.70;;;;;;;28.14;41.48;98249.19;6875511;28;20552;-85
2021/07/12 08:03:02;;;;;;;4.20;1.63;;;;;;;28.77;40.77;98255.41;6867253;28;20230;-85
2021/07/12 08:06:23;;;;;;;1.80;1.60;;;;;;;27.18;43.10;98240.53;6855608;28;20213;-85
2021/07/12 08:09:45;;;;;;;1.73;1.60;;;;;;;27.95;42.17;98237.69;6875726;28;20709;-84
2021/07/12 08:13:09;;;;;;;2.00;1.90;;;;;;;28.24;41.05;98224.66;6875128;28;20600;-84
2021/07/12 08:16:33;;;;;;;4.47;1.93;;;;;;;27.84;41.48;98209.50;6872725;28;20788;-84
2021/07/12 08:19:54;;;;;;;2.20;2.00;;;;;;;27.89;41.41;98201.00;6861063;28;20252;-86
2021/07/12 08:23:18;;;;;;;1.70;1.60;;;;;;;28.52;40.79;98231.41;6863820;28;20315;-82
2021/07/12 08:26:41;;;;;;;1.70;1.60;;;;;;;26.73;43.62;98196.88;6862925;28;20219;-82
2021/07/12 08:30:04;;;;;;;1.70;1.60;;;;;;;26.98;42.59;98220.97;6846795;28;20257;-81
2021/07/12 08:33:27;;;;;;;1.50;1.40;;;;;;;27.12;42.51;98144.09;6866016;28;20236;-84
2021/07/12 08:36:50;;;;;;;1.60;1.50;;;;;;;28.62;40.19;98202.47;6878654;28;20225;-83
2021/07/12 08:40:13;;;;;;;1.63;1.53;;;;;;;28.87;40.07;98188.41;6871895;28;20209;-81
2021/07/12 08:43:35;;;;;;;1.90;1.70;;;;;;;28.51;38.42;98184.59;6870656;28;20209;-85
2021/07/12 08:46:57;;;;;;;2.87;1.60;;;;;;;27.25;40.64;98141.19;6866033;28;20244;-84
2021/07/12 08:50:21;;;;;;;2.00;1.90;;;;;;;28.95;39.74;98186.72;6871390;28;20628;-83
2021/07/12 08:53:43;;;;;;;2.03;1.90;;;;;;;28.43;40.92;98171.59;6866306;28;20205;-84
2021/07/12 08:57:05;;;;;;;1.90;1.80;;;;;;;29.23;38.43;98180.28;6856151;28;20237;-84
2021/07/12 09:00:45;;;;;;;1.60;1.50;;;;;;;29.63;37.86;98177.78;6849054;28;20224;-84
2021/07/12 09:04:07;;;;;;;1.90;1.80;;;;;;;29.38;37.27;98165.75;6872014;28;20291;-85
2021/07/12 09:07:32;;;;;;;1.90;1.70;;;;;;;28.95;39.48;98183.94;6872982;28;20210;-82
2021/07/12 09:11:04;;;;;;;1.73;1.50;;;;;;;29.82;36.61;98180.84;6870172;28;20235;-85
2021/07/12 09:14:26;;;;;;;1.70;1.60;;;;;;;28.35;38.85;98187.09;6865197;28;20206;-83
2021/07/12 09:17:49;;;;;;;1.73;1.63;;;;;;;29.48;37.57;98175.66;6867759;28;20227;-83
2021/07/12 09:21:17;;;;;;;2.30;1.77;;;;;;;29.71;37.45;98143.56;6854751;28;20236;-84
2021/07/12 09:24:45;;;;;;;2.53;1.83;;;;;;;30.95;35.05;98178.66;6858055;28;20209;-85
2021/07/12 09:28:07;;;;;;;2.00;1.90;;;;;;;30.88;34.90;98186.78;6846612;29;20214;-82
2021/07/12 09:31:31;;;;;;;1.77;1.67;;;;;;;31.23;34.90;98187.06;6845768;28;20332;-84
2021/07/12 09:34:56;;;;;;;1.80;1.70;;;;;;;30.01;36.37;98181.91;6853550;28;20205;-83
2021/07/12 09:38:29;;;;;;;1.70;1.60;;;;;;;30.72;34.95;98160.84;6867221;28;20669;-83
2021/07/12 09:41:54;;;;;;;2.67;2.00;;;;;;;30.82;35.11;98179.03;6862115;28;20222;-84
2021/07/12 09:53:49;;;;;;;1.77;1.67;;;;;;;31.09;34.28;98179.09;6874239;23;20234;-81
2021/07/12 09:57:14;;;;;;;3.07;1.93;;;;;;;31.18;34.55;98190.06;6903177;28;20228;-81
2021/07/12 10:00:36;;;;;;;1.60;1.50;;;;;;;30.75;33.74;98151.81;6902992;28;20453;-81
2021/07/12 10:03:58;;;;;;;1.60;1.50;;;;;;;31.51;33.46;98187.88;6861108;28;20201;-81
2021/07/12 10:07:19;;;;;;;3.10;1.80;;;;;;;31.73;32.79;98170.59;6852384;28;20227;-82
2021/07/12 10:10:42;;;;;;;2.73;1.80;;;;;;;31.62;32.47;98136.00;6891962;28;20218;-82
2021/07/12 10:14:05;;;;;;;1.80;1.70;;;;;;;31.12;33.27;98144.13;6898902;28;20204;-82
2021/07/12 10:17:27;;;;;;;2.10;1.53;;;;;;;29.25;36.68;98149.41;6846847;28;20261;-82
2021/07/12 10:20:49;;;;;;;1.73;1.63;;;;;;;30.69;33.62;98136.50;6884060;28;20212;-82
2021/07/12 10:24:10;;;;;;;2.03;1.83;;;;;;;30.73;33.89;98159.66;6889227;28;20204;-82
2021/07/12 10:27:32;;;;;;;2.20;2.00;;;;;;;29.11;37.49;98159.97;6872899;28;20227;-82
2021/07/12 10:30:55;;;;;;;1.90;1.80;;;;;;;30.92;33.22;98136.78;6886691;28;20215;-82
2021/07/12 10:34:28;;;;;;;1.63;1.57;;;;;;;30.70;32.77;98101.94;6890560;28;20212;-82
2021/07/12 10:37:58;;;;;;;2.40;1.70;;;;;;;28.76;37.03;98141.97;6899009;28;20231;-82
2021/07/12 10:41:23;;;;;;;1.70;1.60;;;;;;;29.43;36.78;98136.97;6899523;28;20198;-82
2021/07/12 10:45:10;;;;;;;2.20;2.00;;;;;;;30.84;33.68;98124.63;6899559;28;20218;-82
2021/07/12 10:48:37;;;;;;;1.90;1.80;;;;;;;30.60;33.81;98129.44;6899013;28;20214;-82
2021/07/12 10:51:59;;;;;;;1.80;1.70;;;;;;;31.55;33.56;98142.19;6899342;28;20274;-82
2021/07/12 10:55:31;;;;;;;1.70;1.60;;;;;;;32.40;32.53;98145.22;6878910;28;20232;-83
2021/07/12 10:58:53;;;;;;;1.83;1.60;;;;;;;32.28;30.28;98128.59;6856658;28;20207;-82
2021/07/12 11:02:31;;;;;;;2.67;2.00;;;;;;;32.34;31.42;98155.03;6845572;28;20214;-82
2021/07/12 11:05:54;;;;;;;1.57;1.50;;;;;;;32.56;31.15;98146.81;6871740;28;20217;-87
2021/07/12 11:09:15;;;;;;;1.30;1.30;;;;;;;32.82;31.81;98158.22;6863313;28;20206;-82
2021/07/12 11:12:40;;;;;;;1.80;1.70;;;;;;;33.02;30.86;98156.25;6871246;28;20214;-82
2021/07/12 11:16:15;;;;;;;1.67;1.57;;;;;;;32.85;32.00;98142.72;6866625;28;20754;-82
2021/07/12 11:19:45;;;;;;;1.60;1.50;;;;;;;32.99;29.20;98135.44;6865028;28;20225;-82
2021/07/12 11:23:09;;;;;;;1.80;1.70;;;;;;;32.53;31.13;98125.22;6870277;28;20214;-82
2021/07/12 11:26:42;;;;;;;1.60;1.50;;;;;;;32.75;31.06;98126.50;6891971;28;20222;-82
2021/07/12 11:30:25;;;;;;;1.90;1.80;;;;;;;33.31;30.49;98153.69;6887089;28;20194;-83
2021/07/12 11:33:46;;;;;;;2.63;1.50;;;;;;;32.74;30.83;98131.28;6845737;29;20200;-82
2021/07/12 11:37:10;;;;;;;1.60;1.50;;;;;;;31.97;29.31;98134.16;6845413;29;20230;-82
2021/07/12 11:40:33;;;;;;;2.33;1.73;;;;;;;30.24;32.38;98119.16;6845642;29;20210;-83
2021/07/12 11:44:06;;;;;;;1.73;1.63;;;;;;;30.33;32.79;98122.63;6846068;29;20217;-82
2021/07/12 11:47:30;;;;;;;2.27;2.10;;;;;;;30.68;32.94;98103.44;6845321;29;20264;-82
2021/07/12 11:50:52;;;;;;;1.70;1.57;;;;;;;32.01;31.54;98096.03;6843421;29;20209;-82
2021/07/12 11:54:15;;;;;;;1.70;1.60;;;;;;;32.69;29.36;98102.81;6844538;28;20587;-82
2021/07/12 11:57:39;;;;;;;1.77;1.67;;;;;;;32.76;30.60;98103.00;6864317;28;20294;-82
2021/07/12 12:01:01;;;;;;;1.63;1.53;;;;;;;33.10;28.81;98085.38;6870619;28;20206;-82
2021/07/12 12:04:23;;;;;;;1.80;1.70;;;;;;;33.29;29.29;98088.16;6870239;28;20202;-82
2021/07/12 12:07:47;;;;;;;1.73;1.63;;;;;;;32.97;30.17;98100.66;6870375;28;20223;-82
2021/07/12 12:11:08;;;;;;;2.40;1.90;;;;;;;32.80;30.54;98081.56;6870724;28;20230;-82
2021/07/12 12:14:32;;;;;;;1.73;1.63;;;;;;;31.92;32.27;98071.13;6871013;28;20217;-82
2021/07/12 12:17:56;;;;;;;2.33;2.10;;;;;;;32.86;31.48;98060.53;6870302;28;20230;-82
2021/07/12 12:21:17;;;;;;;2.10;1.90;;;;;;;33.44;29.21;98078.88;6869001;28;20223;-82
2021/07/12 12:24:39;;;;;;;2.10;1.90;;;;;;;33.36;29.30;98080.72;6869074;28;20231;-83
2021/07/12 12:28:01;;;;;;;2.60;2.40;;;;;;;33.11;30.57;98085.00;6867361;28;20660;-82
2021/07/12 12:31:26;;;;;;;2.50;2.00;;;;;;;33.72;29.57;98082.97;6867441;28;20205;-82
2021/07/12 12:34:48;;;;;;;1.57;1.47;;;;;;;33.03;29.64;98082.44;6867959;28;20236;-83
2021/07/12 12:38:12;;;;;;;1.83;1.73;;;;;;;33.09;30.64;98092.94;6867811;28;20235;-82
2021/07/12 12:41:36;;;;;;;1.80;1.70;;;;;;;31.94;32.25;98095.84;6867853;28;20223;-82
2021/07/12 12:44:57;;;;;;;2.17;1.97;;;;;;;32.75;31.35;98068.66;6867954;28;20222;-82
2021/07/12 12:48:43;;;;;;;1.83;1.73;;;;;;;33.88;29.83;98075.31;6866895;28;20210;-82
2021/07/12 12:52:11;;;;;;;2.13;2.03;;;;;;;33.62;29.72;98063.22;6867697;28;20625;-82
2021/07/12 12:55:33;;;;;;;2.00;1.90;;;;;;;33.89;29.33;98068.50;6866689;28;20241;-82
2021/07/12 12:58:59;;;;;;;2.00;1.90;;;;;;;33.95;30.16;98063.44;6866711;28;20208;-82
2021/07/12 13:02:21;;;;;;;2.00;1.90;;;;;;;32.69;30.58;98055.34;6867740;28;20226;-82
2021/07/12 13:05:45;;;;;;;2.00;1.80;;;;;;;33.54;30.11;98061.50;6866992;28;20241;-83
2021/07/12 13:09:09;;;;;;;1.80;1.70;;;;;;;34.02;29.17;98055.16;6864527;28;20210;-82
2021/07/12 13:12:39;;;;;;;1.70;1.60;;;;;;;34.57;27.73;98049.59;6867287;28;20258;-82
2021/07/12 13:16:14;;;;;;;3.73;1.57;;;;;;;34.40;28.51;98027.75;6867695;28;20235;-82
2021/07/12 13:19:36;;;;;;;1.70;1.60;;;;;;;34.24;28.26;98043.06;6867088;28;20208;-82
2021/07/12 13:23:01;;;;;;;1.93;1.70;;;;;;;34.49;27.66;98039.47;6866940;28;20219;-83
2021/07/12 13:26:28;;;;;;;1.97;1.87;;;;;;;33.84;28.77;98037.28;6868440;28;20235;-82
2021/07/12 13:29:50;;;;;;;2.00;1.67;;;;;;;34.10;27.55;98021.28;6869107;28;20197;-82
2021/07/12 13:33:12;;;;;;;1.70;1.60;;;;;;;33.67;30.53;98012.59;6868020;28;20216;-82
2021/07/12 13:36:34;;;;;;;1.90;1.80;;;;;;;32.13;32.46;98015.03;6868421;28;20849;-82
2021/07/12 13:39:57;;;;;;;1.83;1.73;;;;;;;33.35;30.15;98016.81;6868409;28;20211;-82
2021/07/12 13:43:19;;;;;;;1.90;1.67;;;;;;;33.97;29.17;98005.88;6873003;28;20222;-82
2021/07/12 13:46:41;;;;;;;5.00;1.70;;;;;;;33.85;29.19;97997.72;6873105;28;20245;-82
2021/07/12 13:50:04;;;;;;;1.83;1.73;;;;;;;34.22;27.99;97995.88;6873949;28;20209;-82
2021/07/12 13:53:26;;;;;;;4.20;1.90;;;;;;;34.17;29.76;98004.59;6874149;28;20218;-82
2021/07/12 13:56:49;;;;;;;1.80;1.70;;;;;;;34.78;29.54;98007.88;6873103;28;20247;-82
2021/07/12 14:00:12;;;;;;;2.10;1.90;;;;;;;33.36;29.24;98008.06;6872487;28;20219;-82
2021/07/12 14:03:34;;;;;;;1.67;1.57;;;;;;;33.15;30.81;98004.03;6873133;28;20267;-82
2021/07/12 14:06:55;;;;;;;2.00;1.90;;;;;;;32.48;32.89;97994.31;6873003;28;20228;-82
2021/07/12 14:10:18;;;;;;;1.80;1.70;;;;;;;32.70;32.11;98007.53;6872709;28;20217;-82
2021/07/12 14:13:42;;;;;;;2.07;1.97;;;;;;;32.11;33.05;97992.25;6873567;28;20684;-82
2021/07/12 14:17:04;;;;;;;5.93;1.90;;;;;;;31.37;32.77;97981.28;6873541;28;20285;-84
2021/07/12 14:20:26;;;;;;;2.20;2.00;;;;;;;31.97;32.76;97948.09;6872658;28;20204;-83
2021/07/12 14:23:48;;;;;;;2.90;1.80;;;;;;;33.27;31.58;97990.75;6871509;28;20207;-82
2021/07/12 14:27:10;;;;;;;1.83;1.70;;;;;;;31.96;33.17;97974.38;6875924;28;20225;-83
2021/07/12 14:30:33;;;;;;;2.20;2.00;;;;;;;31.91;32.16;97966.28;6872982;28;20229;-82
2021/07/12 14:33:54;;;;;;;2.10;1.77;;;;;;;33.00;31.15;97975.03;6882263;28;20240;-83
2021/07/12 14:37:17;;;;;;;1.87;1.77;;;;;;;31.59;32.59;97963.91;6871941;28;20235;-82
2021/07/12 14:40:39;;;;;;;3.93;1.80;;;;;;;31.65;34.10;97976.38;6872899;28;20210;-82
2021/07/12 14:44:00;;;;;;;3.10;1.90;;;;;;;32.48;32.85;97977.56;6875224;28;20237;-82
2021/07/12 14:47:23;;;;;;;2.00;1.80;;;;;;;33.53;31.03;97948.84;6873801;28;20235;-83
2021/07/12 14:50:47;;;;;;;2.37;1.90;;;;;;;33.30;31.36;97970.41;6874136;28;20197;-82
2021/07/12 14:54:09;;;;;;;2.07;1.90;;;;;;;32.39;33.78;97968.59;6875296;28;20212;-81
2021/07/12 14:57:30;;;;;;;2.00;1.90;;;;;;;31.48;33.37;97870.91;6875895;28;20237;-85
2021/07/12 15:00:52;;;;;;;2.70;1.80;;;;;;;31.50;33.04;97944.59;6881589;28;20194;-82
2021/07/12 15:04:15;;;;;;;2.03;1.93;;;;;;;31.63;32.85;97945.28;6874526;28;20551;-83
2021/07/12 15:07:37;;;;;;;2.07;1.97;;;;;;;31.72;33.70;97932.78;6872014;28;20734;-82
2021/07/12 15:10:59;;;;;;;1.77;1.67;;;;;;;31.20;34.11;97928.72;6871311;28;20213;-83
2021/07/12 15:14:20;;;;;;;2.50;1.73;;;;;;;32.35;32.96;97955.72;6872683;28;20219;-83
2021/07/12 15:17:42;;;;;;;1.93;1.83;;;;;;;33.01;31.61;97959.88;6873024;28;20241;-83
2021/07/12 15:21:05;;;;;;;2.53;1.90;;;;;;;33.32;30.70;97942.88;6870762;28;20214;-83
2021/07/12 15:24:27;;;;;;;2.90;1.97;;;;;;;33.35;30.71;97960.91;6868314;28;20205;-83
2021/07/12 15:27:49;;;;;;;2.23;1.70;;;;;;;33.51;30.16;97959.59;6872311;28;20566;-82
2021/07/12 15:31:10;;;;;;;2.23;1.90;;;;;;;33.88;30.13;97957.00;6871104;28;20210;-83
2021/07/12 15:34:32;;;;;;;2.37;1.80;;;;;;;33.60;30.29;97962.94;6872881;28;20217;-83
2021/07/12 15:37:55;;;;;;;1.80;1.70;;;;;;;32.97;31.36;97956.22;6872192;28;20231;-83
2021/07/12 15:41:18;;;;;;;2.00;1.90;;;;;;;32.39;32.24;97965.81;6872059;28;20213;-83
2021/07/12 15:44:39;;;;;;;2.10;2.00;;;;;;;32.61;31.97;97951.09;6871747;28;20574;-83
2021/07/12 15:48:01;;;;;;;2.50;2.30;;;;;;;31.87;33.11;97920.81;6867226;28;20251;-81
2021/07/12 15:51:24;;;;;;;2.50;2.30;;;;;;;31.75;33.84;97942.41;6865963;28;20212;-84
2021/07/12 15:54:47;;;;;;;2.30;2.00;;;;;;;31.95;33.25;97944.09;6867449;28;20219;-83
2021/07/12 15:58:09;;;;;;;2.23;2.03;;;;;;;32.54;33.12;97944.59;6842354;28;20233;-84
2021/07/12 16:01:31;;;;;;;2.30;2.10;;;;;;;32.53;32.32;97929.81;6838816;29;20213;-83
2021/07/12 16:04:53;;;;;;;2.27;2.07;;;;;;;32.09;32.87;97936.84;6839670;28;20231;-84
2021/07/12 16:08:14;;;;;;;1.90;1.80;;;;;;;32.54;32.52;97944.59;6841301;28;20216;-84
2021/07/12 16:11:38;;;;;;;2.80;2.10;;;;;;;31.15;35.00;97934.53;6863460;28;20284;-84
2021/07/12 16:14:59;;;;;;;4.00;2.10;;;;;;;32.10;34.14;97932.06;6883086;28;20228;-83
2021/07/12 16:18:21;;;;;;;2.27;2.10;;;;;;;32.43;33.88;97943.56;6888498;28;20223;-82
2021/07/12 16:21:42;;;;;;;3.00;2.00;;;;;;;32.68;33.32;97939.28;6895124;28;20219;-83
2021/07/12 16:25:06;;;;;;;3.07;1.70;;;;;;;32.00;34.90;97936.22;6870492;28;20256;-83
2021/07/12 16:28:29;;;;;;;4.77;2.60;;;;;;;32.28;33.69;97919.31;6872568;28;20214;-84
2021/07/12 16:31:52;;;;;;;1.93;1.83;;;;;;;31.92;33.72;97919.72;6870255;28;20209;-83
2021/07/12 16:35:14;;;;;;;1.83;1.73;;;;;;;31.92;34.53;97920.53;6868678;28;20323;-83
2021/07/12 16:38:36;;;;;;;2.73;2.03;;;;;;;31.96;34.83;97915.81;6867442;28;20235;-84
2021/07/12 16:41:57;;;;;;;2.70;2.10;;;;;;;32.42;34.26;97925.22;6867007;28;20207;-84
2021/07/12 16:45:20;;;;;;;2.63;2.43;;;;;;;32.21;34.93;97917.19;6866514;28;20243;-83
2021/07/12 16:48:42;;;;;;;2.17;1.90;;;;;;;31.97;35.22;97936.16;6866192;28;20210;-84
2021/07/12 16:52:05;;;;;;;2.00;1.90;;;;;;;32.75;34.14;97937.44;6865421;28;20222;-84
2021/07/12 16:55:26;;;;;;;2.13;1.80;;;;;;;32.84;33.68;97940.81;6840361;28;20235;-84
2021/07/12 16:58:48;;;;;;;2.17;2.00;;;;;;;32.19;34.06;97938.25;6853804;28;20233;-85
2021/07/12 17:02:12;;;;;;;3.80;2.23;;;;;;;31.89;34.96;97934.41;6866133;28;20198;-84
2021/07/12 17:05:34;;;;;;;4.03;2.10;;;;;;;31.67;35.80;97933.03;6866695;28;20236;-84
2021/07/12 17:08:55;;;;;;;2.37;2.17;;;;;;;31.52;35.77;97927.50;6864894;28;20212;-84
2021/07/12 17:12:17;;;;;;;2.23;2.00;;;;;;;31.44;35.51;97878.34;6866367;28;20217;-85
2021/07/12 17:15:39;;;;;;;3.43;2.30;;;;;;;31.84;35.54;97923.53;6868828;28;20217;-84
2021/07/12 17:19:02;;;;;;;1.93;1.80;;;;;;;32.27;34.53;97923.28;6871305;28;20588;-85
2021/07/12 17:22:23;;;;;;;2.40;2.20;;;;;;;32.67;33.36;97930.06;6870787;28;20211;-85
2021/07/12 17:25:45;;;;;;;3.20;2.20;;;;;;;31.86;34.89;97929.53;6871598;28;20759;-84
2021/07/12 17:29:07;;;;;;;2.70;2.03;;;;;;;31.80;34.63;97917.88;6870510;28;20206;-84
2021/07/12 17:32:29;;;;;;;1.80;1.70;;;;;;;31.24;35.39;97904.56;6871482;28;20573;-83
2021/07/12 17:35:52;;;;;;;2.67;1.97;;;;;;;31.30;35.42;97912.25;6871420;28;20239;-84
2021/07/12 17:39:15;;;;;;;1.93;1.70;;;;;;;31.42;35.67;97912.16;6871489;28;20230;-84
2021/07/12 17:42:38;;;;;;;1.70;1.60;;;;;;;31.66;35.08;97900.78;6861497;28;20230;-83
2021/07/12 17:46:00;;;;;;;2.00;1.90;;;;;;;31.82;35.10;97893.22;6871941;28;20230;-84
2021/07/12 17:49:23;;;;;;;1.90;1.70;;;;;;;31.32;36.04;97906.34;6870248;28;20214;-85
2021/07/12 17:52:46;;;;;;;1.93;1.83;;;;;;;31.73;35.70;97900.97;6871421;28;20211;-84
2021/07/12 17:56:08;;;;;;;1.97;1.80;;;;;;;31.45;36.68;97893.91;6870352;28;20243;-84
2021/07/12 17:59:29;;;;;;;1.93;1.80;;;;;;;31.90;36.19;97891.38;6870618;28;20865;-85
2021/07/12 18:02:51;;;;;;;2.77;2.57;;;;;;;32.00;37.78;97886.03;6875017;28;20209;-84
2021/07/12 18:06:13;;;;;;;2.23;2.00;;;;;;;31.14;40.27;97821.50;6873857;28;20224;-84
2021/07/12 18:09:36;;;;;;;3.67;2.80;;;;;;;31.31;41.86;97880.44;6869235;28;20562;-84
2021/07/12 18:12:57;;;;;;;3.80;3.10;;;;;;;31.21;42.73;97875.44;6870550;28;20272;-84
2021/07/12 18:16:19;;;;;;;5.70;3.80;;;;;;;31.24;43.41;97885.06;6870895;28;20234;-84
2021/07/12 18:19:41;;;;;;;5.70;4.40;;;;;;;31.12;42.77;97877.56;6869793;28;20232;-84
2021/07/12 18:23:02;;;;;;;4.50;2.97;;;;;;;31.20;41.04;97890.50;6870102;28;20201;-84
2021/07/12 18:26:27;;;;;;;2.33;2.10;;;;;;;31.26;38.86;97899.41;6869731;28;20244;-85
2021/07/12 18:29:49;;;;;;;3.67;2.90;;;;;;;31.38;40.07;97885.38;6869397;28;20206;-83
2021/07/12 18:33:11;;;;;;;4.40;3.27;;;;;;;31.28;43.28;97908.22;6870152;28;20203;-85
2021/07/12 18:36:33;;;;;;;4.87;3.40;;;;;;;31.27;43.25;97921.34;6870456;28;20243;-85
2021/07/12 18:39:54;;;;;;;5.83;3.33;;;;;;;30.70;44.97;97915.44;6869857;28;20232;-85
2021/07/12 18:43:19;;;;;;;6.53;3.37;;;;;;;30.93;44.76;97926.78;6866934;28;20668;-82
2021/07/12 18:46:40;;;;;;;5.07;3.23;;;;;;;30.73;45.57;97939.78;6873701;28;20231;-84
2021/07/12 18:50:02;;;;;;;5.73;3.50;;;;;;;30.62;46.61;97937.84;6868520;28;20209;-84
2021/07/12 18:53:24;;;;;;;4.43;2.83;;;;;;;30.56;45.62;97934.53;6868858;28;20230;-85
2021/07/12 18:56:45;;;;;;;3.93;2.90;;;;;;;30.41;45.82;97937.25;6868059;28;20221;-83
2021/07/12 19:00:11;;;;;;;4.50;2.70;;;;;;;30.00;46.52;97907.00;6867980;28;20228;-84
2021/07/12 19:03:32;;;;;;;5.80;3.00;;;;;;;30.28;46.33;97938.47;6868986;28;20669;-84
2021/07/12 19:06:54;;;;;;;5.90;2.90;;;;;;;30.10;46.69;97923.22;6869330;28;20236;-82
2021/07/12 19:10:16;;;;;;;3.33;2.73;;;;;;;29.84;47.40;97923.59;6868161;28;20663;-84
2021/07/12 19:13:38;;;;;;;8.50;3.00;;;;;;;29.40;49.13;97932.09;6869485;28;20210;-85
2021/07/12 19:17:01;;;;;;;6.50;3.17;;;;;;;29.37;48.20;97908.59;6892149;28;20229;-84
2021/07/12 19:20:25;;;;;;;3.50;2.93;;;;;;;29.20;48.86;97941.38;6856350;28;20230;-84
2021/07/12 19:23:47;;;;;;;3.13;2.40;;;;;;;29.16;48.96;97949.56;6848517;28;20769;-84
2021/07/12 19:27:08;;;;;;;4.93;2.77;;;;;;;28.47;50.85;97934.81;6868594;28;20232;-84
2021/07/12 19:30:30;;;;;;;6.03;2.60;;;;;;;28.76;49.79;97965.19;6868931;28;20802;-84
2021/07/12 19:33:53;;;;;;;3.87;2.60;;;;;;;28.43;51.03;97969.13;6848223;28;20207;-84